createdAt,value
2023-01-13T00:01:29.151Z,100031.94
2023-01-13T00:03:57.604Z,100037.97
2023-01-13T00:06:26.914Z,100039.66
2023-01-13T00:08:55.259Z,100031.94
2023-01-13T00:11:26.071Z,100025.97
2023-01-13T00:13:53.938Z,100020.03
2023-01-13T00:16:22.257Z,100013.22
2023-01-13T00:18:51.404Z,100008.13
2023-01-13T00:21:21.029Z,100010.69
2023-01-13T00:23:49.627Z,100014.09
2023-01-13T00:26:19.766Z,100013.22
2023-01-13T00:28:49.670Z,100018.31
2023-01-13T00:31:19.436Z,100023.41
2023-01-13T00:33:48.946Z,100030.25
2023-01-13T00:36:18.459Z,100027.69
2023-01-13T00:38:47.781Z,100037.97
2023-01-13T00:41:17.809Z,100036.19
2023-01-13T00:43:44.957Z,100052.41
2023-01-13T00:46:15.520Z,100050.63
2023-01-13T00:48:44.070Z,100055.75
2023-01-13T00:51:14.903Z,100065.97
2023-01-13T00:53:45.246Z,100071.91
2023-01-13T00:56:16.676Z,100074.50
2023-01-13T00:58:46.585Z,100067.66
2023-01-13T01:01:20.299Z,100065.97
2023-01-13T01:03:48.797Z,100066.88
2023-01-13T01:06:18.598Z,100060.88
2023-01-13T01:08:46.667Z,100050.63
2023-01-13T01:11:17.209Z,100047.25
2023-01-13T01:13:45.665Z,100046.38
2023-01-13T01:16:16.699Z,100046.41
2023-01-13T01:18:46.933Z,100040.44
2023-01-13T01:21:16.443Z,100047.22
2023-01-13T01:23:44.503Z,100052.34
2023-01-13T01:26:15.077Z,100055.75
2023-01-13T01:28:43.948Z,100061.72
2023-01-13T01:31:17.403Z,100064.25
2023-01-13T01:33:46.439Z,100070.25
2023-01-13T01:36:16.588Z,100066.78
2023-01-13T01:38:51.384Z,100071.03
2023-01-13T01:41:21.344Z,100088.13
2023-01-13T01:43:59.723Z,100095.78
2023-01-13T01:46:31.384Z,100094.06
2023-01-13T01:49:06.602Z,100085.56
2023-01-13T01:51:38.329Z,100082.13
2023-01-13T01:54:10.317Z,100082.97
2023-01-13T01:56:39.759Z,100082.97
2023-01-13T01:59:07.724Z,100082.16
2023-01-13T02:01:38.882Z,100077.84
2023-01-13T02:04:13.883Z,100070.19
2023-01-13T02:06:43.293Z,100071.06
2023-01-13T02:09:11.673Z,100063.41
2023-01-13T02:11:57.191Z,100057.44
2023-01-13T02:14:29.410Z,100056.59
2023-01-13T02:17:11.706Z,100058.28
2023-01-13T02:20:16.267Z,100066.81
2023-01-13T02:23:04.012Z,100065.09
2023-01-13T02:26:01.267Z,100061.69
2023-01-13T02:29:07.160Z,100067.63
2023-01-13T02:31:42.331Z,100082.13
2023-01-13T02:34:13.004Z,100104.28
2023-01-13T02:36:51.270Z,100101.72
2023-01-13T02:39:25.301Z,100105.13
2023-01-13T02:42:15.243Z,100118.78
2023-01-13T02:44:48.869Z,100112.78
2023-01-13T02:47:22.988Z,100100.84
2023-01-13T02:49:54.299Z,100085.50
2023-01-13T02:52:26.907Z,100077.84
2023-01-13T02:54:56.873Z,100061.69
2023-01-13T02:57:27.459Z,100053.19
2023-01-13T02:59:56.694Z,100048.06
2023-01-13T03:02:27.089Z,100039.59
2023-01-13T03:04:58.159Z,100020.81
2023-01-13T03:08:18.379Z,100008.06
2023-01-13T03:10:56.059Z,99983.38
2023-01-13T03:13:46.188Z,99976.50
2023-01-13T03:16:24.350Z,99968.88
2023-01-13T03:19:08.128Z,99974.88
2023-01-13T03:21:41.583Z,99976.56
2023-01-13T03:24:14.923Z,99965.53
2023-01-13T03:26:49.426Z,99954.44
2023-01-13T03:29:22.209Z,99944.19
2023-01-13T03:31:57.432Z,99922.03
2023-01-13T03:34:32.724Z,99911.03
2023-01-13T03:37:04.913Z,99888.03
2023-01-13T03:39:37.225Z,99871.88
2023-01-13T03:42:10.024Z,99876.22
2023-01-13T03:44:42.280Z,99855.72
2023-01-13T03:47:19.099Z,99836.16
2023-01-13T03:49:54.452Z,99810.66
2023-01-13T03:52:26.304Z,99789.44
2023-01-13T03:54:59.025Z,99782.63
2023-01-13T03:57:30.490Z,99758.75
2023-01-13T04:00:04.097Z,99760.47
2023-01-13T04:02:48.868Z,99756.22
2023-01-13T04:05:19.533Z,99748.63
2023-01-13T04:07:53.981Z,99724.75
2023-01-13T04:10:28.662Z,99694.22
2023-01-13T04:13:01.704Z,99683.19
2023-01-13T04:15:34.409Z,99658.56
2023-01-13T04:18:15.189Z,99632.19
2023-01-13T04:20:46.242Z,99607.53
2023-01-13T04:23:14.551Z,99592.31
2023-01-13T04:25:43.090Z,99574.47
2023-01-13T04:28:11.448Z,99568.50
2023-01-13T04:30:40.167Z,99553.22
2023-01-13T04:33:08.522Z,99551.56
2023-01-13T04:35:37.438Z,99549.81
2023-01-13T04:38:09.010Z,99542.22
2023-01-13T04:40:36.900Z,99517.53
2023-01-13T04:43:05.032Z,99496.34
2023-01-13T04:45:33.349Z,99485.31
2023-01-13T04:48:01.362Z,99470.88
2023-01-13T04:50:29.508Z,99450.50
2023-01-13T04:52:57.889Z,99451.44
2023-01-13T04:55:27.089Z,99446.31
2023-01-13T04:57:55.049Z,99428.50
2023-01-13T05:00:24.099Z,99409.81
2023-01-13T05:02:52.446Z,99403.09
2023-01-13T05:05:20.363Z,99386.91
2023-01-13T05:07:48.206Z,99364.03
2023-01-13T05:10:16.714Z,99350.47
2023-01-13T05:13:04.315Z,99334.34
2023-01-13T05:15:50.131Z,99318.22
2023-01-13T05:18:19.099Z,99295.38
2023-01-13T05:20:47.067Z,99281.81
2023-01-13T05:23:32.555Z,99265.69
2023-01-13T05:26:00.489Z,99250.47
2023-01-13T05:28:34.186Z,99211.44
2023-01-13T05:31:02.657Z,99195.31
2023-01-13T05:33:30.531Z,99177.50
2023-01-13T05:36:03.910Z,99174.16
2023-01-13T05:38:34.862Z,99169.09
2023-01-13T05:41:45.594Z,99142.84
2023-01-13T05:44:15.458Z,99121.66
2023-01-13T05:46:43.422Z,99087.72
2023-01-13T05:49:11.241Z,99082.72
2023-01-13T05:51:39.045Z,99065.75
2023-01-13T05:54:06.922Z,99067.44
2023-01-13T05:56:35.076Z,99067.38
2023-01-13T05:59:02.891Z,99085.28
2023-01-13T06:01:32.055Z,99093.69
2023-01-13T06:03:59.916Z,99098.75
2023-01-13T06:06:27.675Z,99107.25
2023-01-13T06:08:55.571Z,99116.53
2023-01-13T06:11:23.408Z,99134.31
2023-01-13T06:13:51.170Z,99158.91
2023-01-13T06:16:19.089Z,99153.78
2023-01-13T06:18:48.310Z,99152.97
2023-01-13T06:21:16.308Z,99162.31
2023-01-13T06:23:44.097Z,99151.25
2023-01-13T06:26:17.674Z,99148.72
2023-01-13T06:28:45.487Z,99150.41
2023-01-13T06:31:13.656Z,99131.75
2023-01-13T06:33:46.213Z,99122.47
2023-01-13T06:36:22.285Z,99110.66
2023-01-13T06:38:54.522Z,99084.31
2023-01-13T06:41:42.970Z,99069.06
2023-01-13T06:44:10.575Z,99068.25
2023-01-13T06:46:38.705Z,99052.19
2023-01-13T06:49:07.626Z,99044.56
2023-01-13T06:51:36.909Z,99035.19
2023-01-13T06:54:05.153Z,99048.78
2023-01-13T06:56:32.981Z,99052.19
2023-01-13T07:01:53.301Z,99045.41
2023-01-13T07:04:21.442Z,99030.94
2023-01-13T07:06:50.548Z,99018.22
2023-01-13T07:09:18.406Z,99016.59
2023-01-13T07:11:46.769Z,99003.06
2023-01-13T07:14:32.466Z,99000.50
2023-01-13T07:17:00.391Z,98982.69
2023-01-13T07:19:28.129Z,98963.25
2023-01-13T07:21:57.334Z,98955.72
2023-01-13T07:24:25.257Z,98932.78
2023-01-13T07:26:53.418Z,98919.28
2023-01-13T07:29:21.313Z,98904.88
2023-01-13T07:31:50.206Z,98892.16
2023-01-13T07:34:18.288Z,98893.03
2023-01-13T07:36:46.288Z,98887.13
2023-01-13T07:39:15.676Z,98880.34
2023-01-13T07:42:00.968Z,98877.78
2023-01-13T07:44:29.195Z,98876.94
2023-01-13T07:46:56.945Z,98879.56
2023-01-13T07:49:24.767Z,98868.50
2023-01-13T07:51:52.619Z,98881.16
2023-01-13T07:54:35.199Z,98886.25
2023-01-13T07:57:07.917Z,98888.81
2023-01-13T07:59:35.653Z,98904.00
2023-01-13T08:02:03.604Z,98914.13
2023-01-13T08:04:31.621Z,98918.41
2023-01-13T08:06:59.413Z,98928.56
2023-01-13T08:09:28.724Z,98933.63
2023-01-13T08:12:17.121Z,98933.69
2023-01-13T08:14:45.185Z,98926.00
2023-01-13T08:17:12.948Z,98920.09
2023-01-13T08:19:40.802Z,98923.44
2023-01-13T08:22:08.611Z,98937.84
2023-01-13T08:24:37.930Z,98946.34
2023-01-13T08:27:05.750Z,98959.03
2023-01-13T08:29:33.664Z,98964.91
2023-01-13T08:32:01.437Z,98967.41
2023-01-13T08:34:29.312Z,98984.41
2023-01-13T08:36:57.176Z,98992.81
2023-01-13T08:39:25.777Z,98986.84
2023-01-13T08:41:58.548Z,98988.53
2023-01-13T08:44:28.148Z,98997.00
2023-01-13T08:46:56.613Z,99011.41
2023-01-13T08:49:25.946Z,99028.38
2023-01-13T08:51:54.219Z,99040.16
2023-01-13T08:54:22.146Z,99066.44
2023-01-13T08:56:49.965Z,99084.19
2023-01-13T08:59:21.362Z,99101.16
2023-01-13T09:01:49.465Z,99113.81
2023-01-13T09:04:20.507Z,99140.94
2023-01-13T09:06:49.046Z,99157.88
2023-01-13T09:09:16.956Z,99178.19
2023-01-13T09:12:04.872Z,99190.88
2023-01-13T09:14:36.322Z,99218.88
2023-01-13T09:19:56.448Z,99252.72
2023-01-13T09:22:27.026Z,99272.25
2023-01-13T09:24:55.653Z,99296.84
2023-01-13T09:27:23.976Z,99312.13
2023-01-13T09:29:53.170Z,99310.34
2023-01-13T09:32:21.023Z,99334.16
2023-01-13T09:35:00.498Z,99346.81
2023-01-13T09:37:29.725Z,99359.50
2023-01-13T09:39:57.906Z,99383.34
2023-01-13T09:42:51.093Z,99395.16
2023-01-13T09:45:23.689Z,99409.56
2023-01-13T09:47:55.824Z,99424.84
2023-01-13T09:50:30.665Z,99435.88
2023-01-13T09:55:52.956Z,99473.19
2023-01-13T09:58:21.024Z,99479.13
2023-01-13T10:01:03.621Z,99499.50
2023-01-13T10:03:33.987Z,99509.66
2023-01-13T10:06:06.792Z,99517.25
2023-01-13T10:11:50.310Z,99561.41
2023-01-13T10:14:20.731Z,99601.34
2023-01-13T10:16:58.072Z,99607.25
2023-01-13T10:19:30.971Z,99608.13
2023-01-13T10:22:21.856Z,99599.66
2023-01-13T10:25:06.255Z,99591.13
2023-01-13T10:27:35.997Z,99583.47
2023-01-13T10:30:19.784Z,99578.41
2023-01-13T10:32:53.516Z,99571.59
2023-01-13T10:35:49.263Z,99556.25
2023-01-13T10:38:18.851Z,99561.34
2023-01-13T10:40:51.682Z,99571.59
2023-01-13T10:43:19.603Z,99591.13
2023-01-13T10:46:11.769Z,99610.63
2023-01-13T10:48:43.636Z,99616.56
2023-01-13T10:51:19.369Z,99620.78
2023-01-13T10:53:51.837Z,99623.31
2023-01-13T10:56:21.834Z,99629.28
2023-01-13T10:58:49.866Z,99658.16
2023-01-13T11:01:30.655Z,99681.88
2023-01-13T11:03:59.938Z,99696.38
2023-01-13T11:06:31.053Z,99701.47
2023-01-13T11:08:59.459Z,99704.81
2023-01-13T11:11:39.085Z,99716.75
2023-01-13T11:14:36.887Z,99737.97
2023-01-13T11:17:12.767Z,99766.00
2023-01-13T11:19:49.808Z,99796.63
2023-01-13T11:22:21.895Z,99807.69
2023-01-13T11:24:54.403Z,99816.13
2023-01-13T11:27:31.250Z,99817.91
2023-01-13T11:30:10.122Z,99794.03
2023-01-13T11:32:45.103Z,99776.19
2023-01-13T11:35:44.956Z,99747.34
2023-01-13T11:38:21.105Z,99747.34
2023-01-13T11:40:51.838Z,99726.91
2023-01-13T11:43:29.709Z,99703.06
2023-01-13T11:46:02.799Z,99681.03
2023-01-13T11:48:36.748Z,99656.41
2023-01-13T11:51:12.825Z,99643.66
2023-01-13T11:53:59.232Z,99629.19
2023-01-13T11:56:48.864Z,99658.09
2023-01-13T11:59:38.992Z,99658.94
2023-01-13T12:02:22.975Z,99658.03
2023-01-13T12:05:04.596Z,99646.16
2023-01-13T12:07:45.070Z,99617.25
2023-01-13T12:10:23.970Z,99616.38
2023-01-13T12:13:00.154Z,99572.25
2023-01-13T12:15:57.219Z,99515.38
2023-01-13T12:18:56.747Z,99412.72
2023-01-13T12:21:27.573Z,99311.81
2023-01-13T12:24:13.303Z,99249.00
2023-01-13T12:26:47.517Z,99183.78
2023-01-13T12:29:19.080Z,99121.06
2023-01-13T12:31:48.983Z,99069.44
2023-01-13T12:34:39.979Z,99019.47
2023-01-13T12:37:13.047Z,98995.03
2023-01-13T12:39:52.624Z,98971.22
2023-01-13T12:42:43.484Z,98972.94
2023-01-13T12:45:25.911Z,98972.06
2023-01-13T12:47:54.512Z,98972.06
2023-01-13T12:50:41.761Z,98985.59
2023-01-13T12:53:39.361Z,99007.63
2023-01-13T12:56:32.529Z,99017.78
2023-01-13T12:59:37.151Z,99025.41
2023-01-13T13:02:28.826Z,99034.72
2023-01-13T13:04:58.479Z,99034.69
2023-01-13T13:07:42.532Z,99034.72
2023-01-13T13:10:19.625Z,99030.41
2023-01-13T13:13:29.537Z,99035.53
2023-01-13T13:16:37.241Z,99032.97
2023-01-13T13:19:43.254Z,99032.97
2023-01-13T13:22:39.032Z,99020.28
2023-01-13T13:25:26.098Z,99000.78
2023-01-13T13:28:20.137Z,99013.56
2023-01-13T13:31:05.150Z,99015.19
2023-01-13T13:33:47.010Z,99023.69
2023-01-13T13:36:33.176Z,99027.97
2023-01-13T13:39:31.780Z,99005.06
2023-01-13T13:42:23.131Z,99016.97
2023-01-13T13:45:10.314Z,99016.91
2023-01-13T13:47:39.588Z,99026.19
2023-01-13T13:50:10.474Z,99038.84
2023-01-13T13:52:42.620Z,99045.66
2023-01-13T13:55:18.650Z,99070.22
2023-01-13T13:57:48.886Z,99083.75
2023-01-13T14:00:30.452Z,99115.09
2023-01-13T14:03:01.531Z,99128.66
2023-01-13T14:05:31.068Z,99139.63
2023-01-13T14:08:04.066Z,99166.72
2023-01-13T14:10:35.170Z,99178.59
2023-01-13T14:13:13.963Z,99198.94
2023-01-13T14:15:43.454Z,99213.34
2023-01-13T14:18:14.681Z,99237.88
2023-01-13T14:20:43.179Z,99258.22
2023-01-13T14:23:17.673Z,99283.72
2023-01-13T14:25:48.692Z,99305.72
2023-01-13T14:28:25.216Z,99313.34
2023-01-13T14:30:55.745Z,99309.09
2023-01-13T14:33:32.605Z,99308.28
2023-01-13T14:36:22.166Z,99296.44
2023-01-13T14:38:51.701Z,99290.41
2023-01-13T14:41:23.641Z,99287.84
2023-01-13T14:43:54.192Z,99291.34
2023-01-13T14:46:25.631Z,99302.31
2023-01-13T14:49:00.952Z,99322.63
2023-01-13T14:51:31.454Z,99331.16
2023-01-13T14:53:59.801Z,99335.38
2023-01-13T14:56:51.398Z,99322.63
2023-01-13T14:59:59.287Z,99335.34
2023-01-13T15:02:49.948Z,99336.16
2023-01-13T15:05:49.468Z,99348.03
2023-01-13T15:08:37.881Z,99362.50
2023-01-13T15:11:08.496Z,99371.75
2023-01-13T15:13:53.015Z,99390.47
2023-01-13T15:16:25.111Z,99406.59
2023-01-13T15:18:55.224Z,99409.97
2023-01-13T15:21:24.167Z,99415.88
2023-01-13T15:23:52.030Z,99410.78
2023-01-13T15:26:22.963Z,99403.13
2023-01-13T15:28:51.541Z,99393.81
2023-01-13T15:31:19.918Z,99348.91
2023-01-13T15:33:48.174Z,99284.44
2023-01-13T15:36:25.713Z,99231.03
2023-01-13T15:38:54.190Z,99198.88
2023-01-13T15:41:42.786Z,99171.78
2023-01-13T15:44:30.293Z,99148.84
2023-01-13T15:47:00.009Z,99120.03
2023-01-13T15:49:34.926Z,99105.63
2023-01-13T15:52:05.640Z,99087.00
2023-01-13T15:54:33.507Z,99075.13
2023-01-13T15:57:01.998Z,99066.63
2023-01-13T15:59:29.907Z,99069.19
2023-01-13T16:01:57.877Z,99059.91
2023-01-13T16:04:28.874Z,99051.44
2023-01-13T16:06:56.898Z,99046.38
2023-01-13T16:09:26.085Z,99050.56
2023-01-13T16:11:53.942Z,99075.16
2023-01-13T16:14:21.733Z,99097.19
2023-01-13T16:16:49.572Z,99112.41
2023-01-13T16:19:17.411Z,99130.16
2023-01-13T16:21:45.311Z,99137.75
2023-01-13T16:24:13.112Z,99144.56
2023-01-13T16:26:42.437Z,99161.53
2023-01-13T16:29:12.591Z,99172.44
2023-01-13T16:31:40.537Z,99190.28
2023-01-13T16:34:08.397Z,99197.06
2023-01-13T16:36:37.599Z,99194.50
2023-01-13T16:39:06.367Z,99201.31
2023-01-13T16:41:34.678Z,99209.78
2023-01-13T16:44:06.149Z,99210.66
2023-01-13T16:46:34.924Z,99202.91
2023-01-13T16:49:04.772Z,99214.00
2023-01-13T16:51:33.271Z,99226.75
2023-01-13T16:54:01.245Z,99225.00
2023-01-13T16:56:31.360Z,99229.25
2023-01-13T16:59:02.493Z,99225.00
2023-01-13T17:01:33.941Z,99223.34
2023-01-13T17:04:02.796Z,99226.69
2023-01-13T17:09:31.004Z,99230.97
2023-01-13T17:11:59.951Z,99230.97
2023-01-13T17:14:27.813Z,99204.72
2023-01-13T17:17:00.509Z,99185.16
2023-01-13T17:19:28.936Z,99166.47
2023-01-13T17:21:56.727Z,99145.34
2023-01-13T17:24:25.878Z,99114.84
2023-01-13T17:26:53.733Z,99089.44
2023-01-13T17:29:25.191Z,99069.94
2023-01-13T17:31:53.493Z,99066.63
2023-01-13T17:34:23.078Z,99051.34
2023-01-13T17:36:50.908Z,99030.97
2023-01-13T17:39:20.498Z,99020.88
2023-01-13T17:41:49.613Z,99003.09
2023-01-13T17:44:18.452Z,98981.03
2023-01-13T17:46:46.620Z,98987.00
2023-01-13T17:49:15.858Z,98985.34
2023-01-13T17:51:48.022Z,98967.56
2023-01-13T17:54:16.405Z,98964.16
2023-01-13T17:56:44.800Z,98959.88
2023-01-13T17:59:14.558Z,98966.66
2023-01-13T18:01:42.945Z,98974.31
2023-01-13T18:04:15.956Z,98980.28
2023-01-13T18:06:45.904Z,98987.00
2023-01-13T18:09:13.809Z,98983.63
2023-01-13T18:11:43.773Z,98988.66
2023-01-13T18:14:12.390Z,98991.22
2023-01-13T18:16:40.447Z,98987.78
2023-01-13T18:19:26.273Z,99003.06
2023-01-13T18:22:12.721Z,99008.13
2023-01-13T18:24:58.155Z,99011.50
2023-01-13T18:27:29.871Z,99009.00
2023-01-13T18:30:00.128Z,98999.59
2023-01-13T18:32:32.791Z,98994.56
2023-01-13T18:35:06.105Z,98984.44
2023-01-13T18:37:38.600Z,98975.94
2023-01-13T18:40:09.571Z,98973.44
2023-01-13T18:42:54.011Z,98971.69
2023-01-13T18:45:25.491Z,98978.50
2023-01-13T18:47:54.007Z,98971.69
2023-01-13T18:50:22.414Z,98989.50
2023-01-13T18:52:51.933Z,98988.63
2023-01-13T18:55:19.870Z,99001.31
2023-01-13T18:57:47.751Z,99011.44
2023-01-13T19:00:18.932Z,99019.97
2023-01-13T19:02:48.236Z,99020.78
2023-01-13T19:05:16.024Z,99026.66
2023-01-13T19:07:50.544Z,99029.22
2023-01-13T19:10:20.331Z,99030.06
2023-01-13T19:12:48.622Z,99039.34
2023-01-13T19:15:17.092Z,99035.13
2023-01-13T19:17:45.598Z,99036.03
2023-01-13T19:20:13.919Z,99036.03
2023-01-13T19:22:41.928Z,99028.34
2023-01-13T19:25:09.964Z,99023.28
2023-01-13T19:27:39.842Z,99017.34
2023-01-13T19:30:09.557Z,99025.03
2023-01-13T19:32:37.343Z,99008.84
2023-01-13T19:35:05.867Z,99002.94
2023-01-13T19:37:34.306Z,99007.22
2023-01-13T19:43:15.984Z,99004.66
2023-01-13T19:45:44.904Z,99006.34
2023-01-13T19:48:15.985Z,99011.44
2023-01-13T19:50:43.904Z,99010.56
2023-01-13T19:53:17.656Z,99015.69
2023-01-13T19:55:48.547Z,99027.50
2023-01-13T19:58:19.795Z,99029.16
2023-01-13T20:00:48.563Z,99029.22
2023-01-13T20:03:17.363Z,99031.72
2023-01-13T20:05:45.539Z,99038.53
2023-01-13T20:08:13.346Z,99033.47
2023-01-13T20:10:42.819Z,99032.56
2023-01-13T20:13:10.734Z,99035.97
2023-01-13T20:15:40.896Z,99030.91
2023-01-13T20:18:09.567Z,99028.34
2023-01-13T20:20:37.972Z,99019.88
2023-01-13T20:23:05.945Z,99013.09
2023-01-13T20:25:33.749Z,99006.34
2023-01-13T20:28:02.253Z,99001.25
2023-01-13T20:30:30.164Z,98998.72
2023-01-13T20:32:59.367Z,98988.53
2023-01-13T20:35:29.670Z,98982.59
2023-01-13T20:37:57.841Z,98985.22
2023-01-13T20:40:25.977Z,98979.25
2023-01-13T20:42:52.837Z,98975.88
2023-01-13T20:45:22.592Z,98970.81
2023-01-13T20:47:50.500Z,98970.81
2023-01-13T20:50:19.757Z,98956.41
2023-01-13T20:52:47.938Z,98952.13
2023-01-13T20:55:16.396Z,98958.97
2023-01-13T20:57:48.403Z,98947.91
2023-01-13T21:00:17.735Z,98946.25
2023-01-13T21:02:45.628Z,98939.47
2023-01-13T21:05:13.642Z,98939.47
2023-01-13T21:07:42.776Z,98937.78
2023-01-13T21:10:12.352Z,98930.16
2023-01-13T21:12:57.749Z,98914.84
2023-01-13T21:15:27.445Z,98929.34
2023-01-13T21:18:12.912Z,98923.38
2023-01-13T21:20:41.026Z,98921.69
2023-01-13T21:23:11.587Z,98925.06
2023-01-13T21:25:40.389Z,98920.03
2023-01-13T21:28:12.106Z,98914.97
2023-01-13T21:30:40.532Z,98906.44
2023-01-13T21:33:08.925Z,98898.00
2023-01-13T21:35:39.292Z,98888.66
2023-01-13T21:38:07.373Z,98887.84
2023-01-13T21:40:36.549Z,98883.63
2023-01-13T21:43:22.219Z,98878.56
2023-01-13T21:46:07.702Z,98881.13
2023-01-13T21:48:35.720Z,98866.72
2023-01-13T21:51:03.471Z,98859.91
2023-01-13T21:53:31.342Z,98855.75
2023-01-13T21:56:00.548Z,98848.91
2023-01-13T21:58:28.405Z,98850.63
2023-01-13T22:00:56.453Z,98854.06
2023-01-13T22:03:24.563Z,98851.50
2023-01-13T22:05:56.532Z,98843.91
2023-01-13T22:08:24.396Z,98833.75
2023-01-13T22:10:57.800Z,98807.47
2023-01-13T22:13:45.096Z,98787.22
2023-01-13T22:20:26.386Z,98735.59
2023-01-13T22:22:54.429Z,98722.09
2023-01-13T22:25:22.517Z,98704.34
2023-01-13T22:27:50.599Z,98698.47
2023-01-13T22:30:21.861Z,98691.75
2023-01-13T22:32:50.327Z,98674.84
2023-01-13T22:35:18.344Z,98674.06
2023-01-13T22:37:46.386Z,98678.28
2023-01-13T22:40:14.638Z,98664.66
2023-01-13T22:42:43.825Z,98670.63
2023-01-13T22:45:14.043Z,98679.94
2023-01-13T22:47:43.372Z,98674.84
2023-01-13T22:50:12.818Z,98663.84
2023-01-13T22:52:40.762Z,98659.63
2023-01-13T22:55:09.889Z,98662.19
2023-01-13T22:57:47.309Z,98657.09
2023-01-13T23:00:19.356Z,98647.75
2023-01-13T23:06:37.348Z,98631.78
2023-01-13T23:09:05.393Z,98634.38
2023-01-13T23:11:33.677Z,98628.34
2023-01-13T23:14:03.540Z,98638.56
2023-01-13T23:16:34.148Z,98637.72
2023-01-13T23:19:02.267Z,98641.03
2023-01-13T23:21:31.835Z,98649.53
2023-01-13T23:24:01.289Z,98658.81
2023-01-13T23:26:30.681Z,98652.88
2023-01-13T23:29:02.937Z,98663.94
2023-01-13T23:31:30.970Z,98661.38
2023-01-13T23:33:59.335Z,98664.72
2023-01-13T23:36:28.711Z,98664.72
2023-01-13T23:38:58.091Z,98679.06
2023-01-13T23:41:28.890Z,98689.22
2023-01-13T23:43:58.482Z,98696.88
2023-01-13T23:46:27.386Z,98701.09
2023-01-13T23:48:56.100Z,98700.25
2023-01-13T23:51:26.069Z,98707.03
2023-01-13T23:53:54.146Z,98701.91
2023-01-13T23:56:24.300Z,98709.53
2023-01-13T23:58:53.655Z,98707.81
